createdAt,value
2019-01-05T00:01:07.241Z,2.12
2019-01-05T00:03:34.768Z,2.20
2019-01-05T00:06:06.332Z,2.26
2019-01-05T00:08:38.818Z,2.20
2019-01-05T00:11:25.568Z,2.17
2019-01-05T00:14:08.088Z,2.10
2019-01-05T00:16:52.549Z,2.07
2019-01-05T00:19:25.212Z,1.95
2019-01-05T00:21:54.722Z,1.88
2019-01-05T00:24:24.240Z,1.95
2019-01-05T00:26:56.802Z,1.94
2019-01-05T00:29:39.576Z,1.90
2019-01-05T00:32:10.552Z,1.93
2019-01-05T00:34:38.011Z,2.02
2019-01-05T00:37:06.547Z,2.08
2019-01-05T00:39:49.188Z,2.09
2019-01-05T00:42:16.205Z,2.15
2019-01-05T00:44:48.775Z,2.16
2019-01-05T00:47:30.611Z,2.22
2019-01-05T00:50:16.183Z,2.27
2019-01-05T00:53:04.085Z,2.31
2019-01-05T00:55:31.555Z,2.36
2019-01-05T00:58:04.170Z,2.42
2019-01-05T01:00:32.776Z,2.42
2019-01-05T01:03:05.334Z,2.37
2019-01-05T01:05:37.194Z,2.38
2019-01-05T01:08:23.025Z,2.36
2019-01-05T01:11:04.843Z,2.30
2019-01-05T01:13:37.374Z,2.29
2019-01-05T01:16:22.095Z,2.32
2019-01-05T01:19:05.693Z,2.32
2019-01-05T01:21:44.254Z,2.30
2019-01-05T01:24:12.224Z,2.39
2019-01-05T01:26:55.781Z,2.36
2019-01-05T01:29:27.725Z,2.32
2019-01-05T01:32:11.433Z,2.29
2019-01-05T01:34:40.088Z,2.29
2019-01-05T01:37:26.759Z,2.28
2019-01-05T01:40:02.374Z,2.33
2019-01-05T01:42:49.084Z,2.34
2019-01-05T01:45:21.545Z,2.34
2019-01-05T01:47:52.335Z,2.34
2019-01-05T01:50:24.881Z,2.40
2019-01-05T01:55:52.129Z,2.83
2019-01-05T01:58:40.370Z,2.57
2019-01-05T02:04:08.635Z,2.64
2019-01-05T02:06:56.216Z,2.42
2019-01-05T02:12:18.785Z,2.59
2019-01-05T02:14:46.190Z,2.46
2019-01-05T02:17:19.145Z,2.37
2019-01-05T02:22:52.042Z,2.61
2019-01-05T02:25:41.354Z,2.42
2019-01-05T02:28:37.869Z,2.26
2019-01-05T02:31:18.585Z,1.92
2019-01-05T02:33:54.807Z,1.91
2019-01-05T02:36:43.304Z,1.96
2019-01-05T02:42:55.057Z,2.29
2019-01-05T02:45:37.707Z,2.10
2019-01-05T02:48:14.120Z,2.01
2019-01-05T02:50:58.406Z,1.96
2019-01-05T02:53:31.230Z,1.90
2019-01-05T02:56:17.845Z,1.73
2019-01-05T02:59:23.800Z,1.78
2019-01-05T03:05:08.303Z,2.21
2019-01-05T03:07:53.047Z,2.06
2019-01-05T03:10:23.229Z,1.96
2019-01-05T03:19:34.093Z,2.46
2019-01-05T03:25:27.914Z,2.24
2019-01-05T03:31:17.671Z,2.21
2019-01-05T03:41:20.016Z,2.17
2019-01-05T03:47:03.014Z,1.94
2019-01-05T03:49:53.728Z,1.57
2019-01-05T03:52:27.656Z,1.38
2019-01-05T03:55:18.651Z,1.31
2019-01-05T03:57:57.216Z,1.15
2019-01-05T04:03:59.099Z,1.37
2019-01-05T04:06:35.786Z,1.17
2019-01-05T04:09:14.945Z,1.01
2019-01-05T04:15:07.966Z,1.24
2019-01-05T04:20:56.845Z,1.53
2019-01-05T04:23:43.678Z,1.29
2019-01-05T04:26:28.646Z,1.22
2019-01-05T04:29:06.147Z,1.19
2019-01-05T04:35:23.321Z,1.55
2019-01-05T04:40:59.536Z,1.66
2019-01-05T04:43:40.007Z,1.40
2019-01-05T04:46:36.029Z,1.25
2019-01-05T04:49:20.843Z,1.14
2019-01-05T04:52:06.349Z,1.15
2019-01-05T04:55:05.113Z,1.14
2019-01-05T04:57:37.484Z,1.06
2019-01-05T05:00:18.897Z,1.04
2019-01-05T05:06:12.826Z,1.42
2019-01-05T05:11:54.398Z,1.48
2019-01-05T05:14:26.702Z,1.24
2019-01-05T05:17:18.974Z,1.09
2019-01-05T05:22:59.629Z,1.36
2019-01-05T05:29:15.456Z,1.45
2019-01-05T05:31:50.062Z,1.19
2019-01-05T05:37:48.827Z,1.42
2019-01-05T05:44:08.637Z,1.45
2019-01-05T05:46:59.404Z,1.21
2019-01-05T05:49:38.303Z,1.06
2019-01-05T05:56:02.082Z,1.30
2019-01-05T06:02:09.931Z,1.40
2019-01-05T06:08:27.323Z,1.48
2019-01-05T06:11:02.064Z,1.23
2019-01-05T06:16:38.000Z,1.47
2019-01-05T06:19:11.333Z,1.30
2019-01-05T06:22:10.134Z,1.17
2019-01-05T06:25:00.166Z,1.08
2019-01-05T06:27:42.984Z,1.07
2019-01-05T06:33:21.356Z,1.34
2019-01-05T06:39:27.154Z,1.35
2019-01-05T06:45:19.879Z,1.30
2019-01-05T06:48:01.887Z,1.00
2019-01-05T06:53:44.723Z,1.24
2019-01-05T06:59:48.443Z,1.34
2019-01-05T07:02:32.810Z,1.10
2019-01-05T07:05:09.703Z,0.99
2019-01-05T07:07:56.429Z,0.91
2019-01-05T07:11:01.282Z,0.84
2019-01-05T07:20:30.716Z,1.37
2019-01-05T07:26:27.801Z,1.53
2019-01-05T07:29:10.459Z,1.34
2019-01-05T07:32:00.811Z,1.23
2019-01-05T07:37:58.963Z,1.36
2019-01-05T07:44:02.272Z,1.60
2019-01-05T07:46:40.338Z,1.36
2019-01-05T07:49:24.508Z,1.28
2019-01-05T07:55:15.179Z,1.88
2019-01-05T08:04:14.630Z,2.60
2019-01-05T08:06:57.499Z,2.48
2019-01-05T08:09:36.571Z,2.49
2019-01-05T08:12:33.461Z,2.44
2019-01-05T08:18:32.243Z,2.45
2019-01-05T08:21:26.280Z,2.32
2019-01-05T08:27:04.429Z,2.54
2019-01-05T08:32:48.076Z,2.54
2019-01-05T08:35:34.622Z,2.46
2019-01-05T08:41:31.835Z,2.53
2019-01-05T08:47:23.118Z,2.82
2019-01-05T08:53:07.382Z,2.68
2019-01-05T08:55:48.244Z,2.48
2019-01-05T08:58:23.183Z,2.54
2019-01-05T09:00:55.188Z,2.59
2019-01-05T09:07:18.012Z,3.15
2019-01-05T09:10:08.700Z,3.00
2019-01-05T09:16:09.651Z,3.23
2019-01-05T09:22:35.244Z,3.37
2019-01-05T09:25:17.369Z,3.20
2019-01-05T09:28:02.208Z,3.32
2019-01-05T09:33:53.920Z,3.78
2019-01-05T09:39:55.531Z,3.98
2019-01-05T09:42:46.193Z,3.85
2019-01-05T09:45:15.855Z,3.87
2019-01-05T09:47:55.682Z,3.95
2019-01-05T09:53:48.211Z,4.06
2019-01-05T09:59:34.316Z,4.10
2019-01-05T10:05:38.259Z,4.31
2019-01-05T10:11:44.841Z,4.16
2019-01-05T10:18:09.572Z,4.29
2019-01-05T10:20:51.622Z,4.30
2019-01-05T10:26:31.110Z,4.61
2019-01-05T10:29:19.999Z,4.50
2019-01-05T10:32:12.968Z,4.19
2019-01-05T10:35:21.901Z,4.13
2019-01-05T10:41:08.709Z,4.55
2019-01-05T10:53:23.015Z,5.73
2019-01-05T10:56:00.653Z,5.49
2019-01-05T11:01:53.519Z,5.54
2019-01-05T11:04:28.821Z,5.23
2019-01-05T11:07:04.926Z,5.01
2019-01-05T11:09:47.216Z,4.76
2019-01-05T11:19:27.890Z,5.58
2019-01-05T11:25:26.547Z,5.74
2019-01-05T11:28:22.400Z,5.75
2019-01-05T11:31:25.351Z,5.86
2019-01-05T11:37:00.928Z,6.14
2019-01-05T11:39:52.067Z,6.20
2019-01-05T11:42:42.976Z,6.13
2019-01-05T11:45:38.096Z,6.09
2019-01-05T11:48:32.883Z,5.95
2019-01-05T11:57:19.213Z,6.31
2019-01-05T12:03:02.769Z,6.37
2019-01-05T12:05:39.956Z,5.97
2019-01-05T12:11:47.573Z,6.16
2019-01-05T12:17:21.981Z,6.05
2019-01-05T12:20:11.676Z,5.81
2019-01-05T12:22:54.743Z,5.67
2019-01-05T12:29:01.131Z,5.96
2019-01-05T12:31:43.788Z,5.78
2019-01-05T12:40:48.528Z,5.92
2019-01-05T12:43:30.257Z,5.70
2019-01-05T12:46:03.769Z,5.54
2019-01-05T12:51:52.551Z,5.99
2019-01-05T12:57:53.123Z,6.42
2019-01-05T13:00:50.759Z,6.27
2019-01-05T13:10:21.062Z,6.33
2019-01-05T13:13:07.122Z,6.37
2019-01-05T13:15:56.283Z,6.32
2019-01-05T13:21:49.707Z,6.51
2019-01-05T13:24:35.151Z,6.61
2019-01-05T13:30:36.868Z,7.39
2019-01-05T13:36:23.554Z,6.71
2019-01-05T13:38:58.360Z,6.53
2019-01-05T13:41:50.033Z,6.42
2019-01-05T13:44:24.379Z,6.31
2019-01-05T13:50:31.023Z,5.99
2019-01-05T13:53:14.995Z,5.85
2019-01-05T13:56:02.773Z,5.82
2019-01-05T13:58:48.994Z,5.81
2019-01-05T14:01:37.198Z,5.70
2019-01-05T14:04:17.394Z,5.65
2019-01-05T14:06:50.235Z,5.69
2019-01-05T14:12:18.246Z,6.26
2019-01-05T14:14:46.014Z,6.25
2019-01-05T14:17:33.257Z,6.09
2019-01-05T14:20:11.769Z,6.09
2019-01-05T14:25:49.778Z,6.26
2019-01-05T14:28:19.290Z,6.00
2019-01-05T14:30:46.687Z,5.90
2019-01-05T14:33:19.695Z,5.88
2019-01-05T14:36:07.875Z,5.89
2019-01-05T14:38:53.165Z,5.86
2019-01-05T14:41:26.475Z,5.92
2019-01-05T14:44:09.292Z,5.93
2019-01-05T14:46:54.542Z,5.85
2019-01-05T14:49:29.591Z,5.71
2019-01-05T14:52:16.293Z,5.65
2019-01-05T14:54:49.610Z,5.78
2019-01-05T14:57:22.611Z,5.82
2019-01-05T14:59:52.387Z,5.83
2019-01-05T15:02:36.600Z,5.92
2019-01-05T15:05:09.572Z,5.91
2019-01-05T15:07:38.990Z,5.79
2019-01-05T15:13:07.141Z,6.13
2019-01-05T15:15:40.095Z,6.02
2019-01-05T15:21:21.432Z,6.04
2019-01-05T15:24:06.517Z,5.85
2019-01-05T15:26:34.290Z,5.70
2019-01-05T15:29:07.240Z,5.67
2019-01-05T15:31:36.006Z,5.67
2019-01-05T15:34:09.111Z,5.73
2019-01-05T15:36:36.687Z,5.79
2019-01-05T15:39:19.890Z,5.77
2019-01-05T15:41:47.915Z,5.71
2019-01-05T15:44:31.180Z,5.65
2019-01-05T15:50:10.540Z,5.82
2019-01-05T15:52:43.521Z,5.60
2019-01-05T15:55:21.657Z,5.50
2019-01-05T15:57:54.707Z,5.45
2019-01-05T16:00:32.568Z,5.41
2019-01-05T16:03:01.969Z,5.46
2019-01-05T16:05:35.031Z,5.53
2019-01-05T16:08:04.024Z,5.50
2019-01-05T16:13:29.931Z,5.75
2019-01-05T16:16:02.991Z,5.69
2019-01-05T16:18:46.467Z,5.66
2019-01-05T16:21:28.947Z,5.69
2019-01-05T16:24:12.434Z,5.68
2019-01-05T16:26:59.246Z,5.56
2019-01-05T16:29:38.803Z,5.53
2019-01-05T16:32:11.169Z,5.48
2019-01-05T16:34:48.501Z,5.49
2019-01-05T16:40:27.403Z,5.82
2019-01-05T16:45:52.652Z,5.95
2019-01-05T16:48:25.826Z,5.82
2019-01-05T16:50:55.045Z,5.70
2019-01-05T16:53:27.954Z,5.62
2019-01-05T16:56:01.044Z,5.58
2019-01-05T16:58:28.878Z,5.63
2019-01-05T17:01:07.168Z,5.67
2019-01-05T17:03:35.953Z,5.57
2019-01-05T17:06:18.238Z,5.50
2019-01-05T17:08:46.114Z,5.37
2019-01-05T17:11:13.503Z,5.38
2019-01-05T17:16:44.167Z,5.71
2019-01-05T17:19:12.058Z,5.59
2019-01-05T17:21:42.818Z,5.50
2019-01-05T17:24:10.639Z,5.48
2019-01-05T17:26:54.865Z,5.51
2019-01-05T17:29:22.907Z,5.53
2019-01-05T17:31:53.105Z,5.57
2019-01-05T17:34:22.513Z,5.54
2019-01-05T17:36:55.424Z,5.46
2019-01-05T17:42:20.152Z,5.75
2019-01-05T17:44:51.473Z,5.63
2019-01-05T17:47:21.992Z,5.51
2019-01-05T17:50:04.391Z,5.49
2019-01-05T17:52:36.395Z,5.53
2019-01-05T17:55:15.525Z,5.55
2019-01-05T17:57:44.763Z,5.50
2019-01-05T18:03:11.666Z,5.77
2019-01-05T18:05:56.355Z,5.65
2019-01-05T18:08:39.068Z,5.58
2019-01-05T18:11:09.922Z,5.56
2019-01-05T18:13:53.177Z,5.49
2019-01-05T18:16:26.233Z,5.48
2019-01-05T18:18:59.136Z,5.47
2019-01-05T18:21:33.851Z,5.44
2019-01-05T18:24:03.734Z,5.39
2019-01-05T18:26:32.708Z,5.38
2019-01-05T18:29:05.667Z,5.37
2019-01-05T18:31:39.768Z,5.44
2019-01-05T18:34:25.429Z,5.47
2019-01-05T18:39:54.556Z,5.93
2019-01-05T18:42:37.957Z,5.73
2019-01-05T18:45:06.299Z,5.72
2019-01-05T18:47:49.606Z,5.75
2019-01-05T18:50:22.724Z,5.72
2019-01-05T18:53:05.946Z,5.76
2019-01-05T18:55:39.006Z,5.71
2019-01-05T18:58:25.281Z,5.73
2019-01-05T19:01:05.540Z,5.67
2019-01-05T19:03:34.905Z,5.58
2019-01-05T19:06:07.096Z,5.49
2019-01-05T19:08:40.217Z,5.45
2019-01-05T19:11:08.401Z,5.47
2019-01-05T19:13:46.855Z,5.50
2019-01-05T19:16:35.164Z,5.48
2019-01-05T19:19:02.578Z,5.43
2019-01-05T19:24:28.338Z,5.70
2019-01-05T19:27:03.262Z,5.60
2019-01-05T19:29:36.399Z,5.55
2019-01-05T19:32:14.082Z,5.47
2019-01-05T19:34:41.622Z,5.50
2019-01-05T19:37:12.469Z,5.48
2019-01-05T19:39:45.440Z,5.47
2019-01-05T19:42:17.412Z,5.37
2019-01-05T19:47:45.575Z,5.58
2019-01-05T19:50:13.771Z,5.45
2019-01-05T19:52:49.655Z,5.36
2019-01-05T19:55:22.802Z,5.25
2019-01-05T19:57:55.900Z,5.19
2019-01-05T20:00:28.440Z,5.30
2019-01-05T20:02:58.286Z,5.57
2019-01-05T20:05:31.444Z,5.46
2019-01-05T20:10:58.008Z,5.72
2019-01-05T20:13:26.340Z,5.59
2019-01-05T20:16:10.694Z,5.49
2019-01-05T20:18:44.623Z,5.42
2019-01-05T20:21:13.982Z,5.38
2019-01-05T20:26:52.195Z,5.64
2019-01-05T20:29:36.371Z,5.46
2019-01-05T20:32:17.760Z,5.37
2019-01-05T20:35:04.863Z,5.33
2019-01-05T20:37:36.824Z,5.33
2019-01-05T20:40:14.165Z,5.34
2019-01-05T20:45:49.430Z,5.62
2019-01-05T20:48:19.264Z,5.49
2019-01-05T20:50:48.587Z,5.17
2019-01-05T20:53:16.001Z,4.93
2019-01-05T20:55:53.337Z,4.83
2019-01-05T21:01:23.471Z,4.97
2019-01-05T21:03:56.563Z,4.79
2019-01-05T21:06:29.757Z,4.65
2019-01-05T21:09:12.375Z,4.53
2019-01-05T21:11:44.679Z,4.41
2019-01-05T21:14:17.631Z,4.22
2019-01-05T21:16:50.485Z,4.13
2019-01-05T21:19:18.827Z,4.17
2019-01-05T21:21:51.910Z,4.16
2019-01-05T21:24:25.200Z,3.99
2019-01-05T21:26:58.264Z,3.90
2019-01-05T21:29:26.635Z,3.85
2019-01-05T21:34:53.738Z,4.33
2019-01-05T21:40:17.349Z,4.52
2019-01-05T21:42:50.186Z,4.43
2019-01-05T21:45:23.174Z,4.33
2019-01-05T21:48:08.452Z,4.26
2019-01-05T21:50:40.825Z,4.19
2019-01-05T21:53:09.510Z,4.14
2019-01-05T21:58:49.384Z,4.38
2019-01-05T22:01:22.449Z,4.23
2019-01-05T22:03:49.853Z,4.22
2019-01-05T22:06:22.823Z,4.24
2019-01-05T22:09:08.079Z,4.27
2019-01-05T22:11:50.404Z,4.07
2019-01-05T22:14:17.900Z,4.02
2019-01-05T22:19:51.884Z,4.21
2019-01-05T22:22:25.683Z,3.85
2019-01-05T22:27:52.235Z,4.06
2019-01-05T22:30:23.614Z,3.92
2019-01-05T22:32:53.407Z,4.01
2019-01-05T22:35:20.871Z,3.95
2019-01-05T22:37:50.828Z,3.89
2019-01-05T22:40:24.829Z,3.98
2019-01-05T22:43:09.963Z,3.98
2019-01-05T22:45:42.126Z,4.06
2019-01-05T22:51:20.435Z,4.32
2019-01-05T22:53:50.204Z,4.14
2019-01-05T22:56:19.572Z,4.07
2019-01-05T22:59:01.912Z,4.03
2019-01-05T23:01:34.862Z,3.96
2019-01-05T23:04:12.967Z,3.99
2019-01-05T23:06:46.031Z,4.15
2019-01-05T23:09:31.275Z,4.22
2019-01-05T23:12:04.173Z,4.32
2019-01-05T23:14:41.499Z,4.41
2019-01-05T23:17:10.856Z,4.46
2019-01-05T23:19:43.807Z,4.46
2019-01-05T23:22:11.237Z,4.46
2019-01-05T23:24:41.399Z,4.43
2019-01-05T23:27:14.457Z,4.48
2019-01-05T23:29:47.440Z,4.47
2019-01-05T23:35:11.725Z,4.86
2019-01-05T23:37:39.352Z,4.65
2019-01-05T23:40:08.162Z,4.50
2019-01-05T23:42:41.190Z,4.49
2019-01-05T23:48:09.398Z,4.78
2019-01-05T23:50:42.521Z,4.68
2019-01-05T23:53:09.931Z,4.65
2019-01-05T23:58:33.094Z,4.93
